CORBY6 ETNS-EKKA
Flight info
| Callsign | CORBY6 |
|---|---|
| Flight time | 0h 56m |
| Altitude | FL030 |
| Route | 5435N00938E 5457N00923E 5531N00926E 5550N00916E 5608N00901E |
| Aircraft | EC35/L-S/N |
Departure
| Time | 2026-04-27 15:34 |
|---|---|
| Airport | Schleswig Air Base (ETNS) |
Arrival
| Time | 2026-04-27 16:30 |
|---|---|
| Airport | Midtjyllands Airport / Air Base Karup (EKKA) |
| Time | Latitude | Longitude | Altitude | Speed | Heading |
|---|---|---|---|---|---|
| 2026-04-27 15:25 | 54.45847 | 9.50708 | 76 ft | 0 kts | 191° |
| 2026-04-27 15:33 | 54.45846 | 9.50709 | 77 ft | 4 kts | 192° |
| 2026-04-27 15:33 | 54.45712 | 9.50740 | 82 ft | 31 kts | 154° |
| 2026-04-27 15:33 | 54.45651 | 9.51088 | 352 ft | 57 kts | 84° |
| 2026-04-27 15:33 | 54.45882 | 9.52226 | 477 ft | 130 kts | 69° |
| 2026-04-27 15:34 | 54.46068 | 9.53524 | 1469 ft | 93 kts | 70° |
| 2026-04-27 15:34 | 54.46340 | 9.54716 | 1875 ft | 123 kts | 58° |
| 2026-04-27 15:34 | 54.46797 | 9.55915 | 2055 ft | 120 kts | 37° |
| 2026-04-27 15:34 | 54.47567 | 9.56375 | 2230 ft | 119 kts | 5° |
| 2026-04-27 15:35 | 54.48388 | 9.56553 | 2405 ft | 120 kts | 4° |
| 2026-04-27 15:35 | 54.49215 | 9.56705 | 2581 ft | 118 kts | 4° |
| 2026-04-27 15:35 | 54.50028 | 9.56845 | 2755 ft | 118 kts | 4° |
| 2026-04-27 15:35 | 54.50842 | 9.56980 | 2895 ft | 118 kts | 5° |
| 2026-04-27 15:36 | 54.51645 | 9.57267 | 2956 ft | 118 kts | 14° |
| 2026-04-27 15:36 | 54.52404 | 9.57754 | 2981 ft | 117 kts | 22° |
| 2026-04-27 15:36 | 54.53142 | 9.58314 | 2992 ft | 117 kts | 22° |
| 2026-04-27 15:36 | 54.53890 | 9.58887 | 2997 ft | 118 kts | 22° |
| 2026-04-27 15:37 | 54.54641 | 9.59464 | 2999 ft | 118 kts | 22° |
| 2026-04-27 15:37 | 54.55393 | 9.60043 | 2999 ft | 119 kts | 22° |
| 2026-04-27 15:37 | 54.56155 | 9.60631 | 3000 ft | 120 kts | 22° |
| 2026-04-27 15:37 | 54.56921 | 9.61222 | 3000 ft | 122 kts | 22° |
| 2026-04-27 15:38 | 54.57689 | 9.61812 | 3000 ft | 120 kts | 20° |
| 2026-04-27 15:38 | 54.58515 | 9.61843 | 3000 ft | 122 kts | 345° |
| 2026-04-27 15:38 | 54.59347 | 9.61420 | 3000 ft | 126 kts | 341° |
| 2026-04-27 15:38 | 54.60182 | 9.60957 | 3000 ft | 126 kts | 341° |
| 2026-04-27 15:39 | 54.61019 | 9.60487 | 3000 ft | 127 kts | 341° |
| 2026-04-27 15:39 | 54.61852 | 9.60016 | 3000 ft | 126 kts | 341° |
| 2026-04-27 15:39 | 54.62685 | 9.59545 | 3000 ft | 126 kts | 341° |
| 2026-04-27 15:39 | 54.63515 | 9.59075 | 2999 ft | 126 kts | 341° |
| 2026-04-27 15:40 | 54.64352 | 9.58600 | 3000 ft | 127 kts | 341° |
| 2026-04-27 15:40 | 54.65184 | 9.58128 | 3000 ft | 126 kts | 341° |
| 2026-04-27 15:40 | 54.66016 | 9.57655 | 3000 ft | 127 kts | 341° |
| 2026-04-27 15:40 | 54.66852 | 9.57180 | 3001 ft | 126 kts | 341° |
| 2026-04-27 15:41 | 54.67433 | 9.56849 | 3001 ft | 126 kts | 341° |
| 2026-04-27 15:41 | 54.68260 | 9.56379 | 3000 ft | 126 kts | 341° |
| 2026-04-27 15:41 | 54.69093 | 9.55905 | 3000 ft | 126 kts | 341° |
| 2026-04-27 15:41 | 54.69925 | 9.55432 | 3000 ft | 127 kts | 341° |
| 2026-04-27 15:42 | 54.70765 | 9.54952 | 3000 ft | 127 kts | 341° |
| 2026-04-27 15:42 | 54.71601 | 9.54477 | 3000 ft | 126 kts | 341° |
| 2026-04-27 15:42 | 54.72434 | 9.54002 | 3000 ft | 126 kts | 341° |
| 2026-04-27 15:42 | 54.73258 | 9.53483 | 3000 ft | 126 kts | 338° |
| 2026-04-27 15:43 | 54.74078 | 9.52932 | 3000 ft | 127 kts | 338° |
| 2026-04-27 15:43 | 54.74896 | 9.52382 | 3000 ft | 126 kts | 338° |
| 2026-04-27 15:43 | 54.75706 | 9.51836 | 3000 ft | 125 kts | 338° |
| 2026-04-27 15:43 | 54.76518 | 9.51287 | 3000 ft | 126 kts | 338° |
| 2026-04-27 15:44 | 54.77335 | 9.50735 | 3000 ft | 126 kts | 338° |
| 2026-04-27 15:44 | 54.78154 | 9.50180 | 3000 ft | 127 kts | 338° |
| 2026-04-27 15:44 | 54.78978 | 9.49624 | 3000 ft | 127 kts | 338° |
| 2026-04-27 15:44 | 54.79800 | 9.49068 | 3000 ft | 128 kts | 338° |
| 2026-04-27 15:45 | 54.80628 | 9.48508 | 3000 ft | 127 kts | 338° |
| 2026-04-27 15:45 | 54.81448 | 9.47954 | 3000 ft | 127 kts | 338° |
| 2026-04-27 15:45 | 54.82266 | 9.47401 | 3000 ft | 127 kts | 338° |
| 2026-04-27 15:45 | 54.83087 | 9.46846 | 3000 ft | 127 kts | 338° |
| 2026-04-27 15:46 | 54.83911 | 9.46288 | 3000 ft | 128 kts | 338° |
| 2026-04-27 15:46 | 54.84736 | 9.45730 | 3000 ft | 128 kts | 338° |
| 2026-04-27 15:46 | 54.85567 | 9.45168 | 3000 ft | 127 kts | 338° |
| 2026-04-27 15:46 | 54.86393 | 9.44608 | 3000 ft | 128 kts | 338° |
| 2026-04-27 15:47 | 54.87222 | 9.44045 | 3000 ft | 129 kts | 338° |
| 2026-04-27 15:47 | 54.88059 | 9.43477 | 3000 ft | 130 kts | 338° |
| 2026-04-27 15:47 | 54.88896 | 9.42909 | 3000 ft | 129 kts | 338° |
| 2026-04-27 15:47 | 54.89731 | 9.42342 | 3000 ft | 128 kts | 338° |
| 2026-04-27 15:48 | 54.90567 | 9.41774 | 2999 ft | 129 kts | 338° |
| 2026-04-27 15:48 | 54.91399 | 9.41209 | 3000 ft | 129 kts | 338° |
| 2026-04-27 15:48 | 54.92234 | 9.40642 | 3000 ft | 129 kts | 338° |
| 2026-04-27 15:49 | 54.93879 | 9.39523 | 3000 ft | 126 kts | 338° |
| 2026-04-27 15:49 | 54.94697 | 9.38966 | 2966 ft | 126 kts | 338° |
| 2026-04-27 15:49 | 54.95515 | 9.38423 | 2790 ft | 126 kts | 344° |
| 2026-04-27 15:49 | 54.96378 | 9.38302 | 2632 ft | 124 kts | 360° |
| 2026-04-27 15:50 | 54.97248 | 9.38313 | 2555 ft | 127 kts | 0° |
| 2026-04-27 15:50 | 54.98130 | 9.38335 | 2518 ft | 127 kts | 0° |
| 2026-04-27 15:50 | 54.99014 | 9.38358 | 2498 ft | 128 kts | 0° |
| 2026-04-27 15:50 | 54.99891 | 9.38381 | 2490 ft | 125 kts | 0° |
| 2026-04-27 15:51 | 55.00757 | 9.38403 | 2487 ft | 124 kts | 0° |
| 2026-04-27 15:51 | 55.01623 | 9.38438 | 2487 ft | 124 kts | 1° |
| 2026-04-27 15:51 | 55.02484 | 9.38485 | 2487 ft | 124 kts | 1° |
| 2026-04-27 15:51 | 55.03340 | 9.38532 | 2488 ft | 123 kts | 1° |
| 2026-04-27 15:52 | 55.04199 | 9.38579 | 2489 ft | 124 kts | 1° |
| 2026-04-27 15:52 | 55.05062 | 9.38626 | 2489 ft | 125 kts | 1° |
| 2026-04-27 15:52 | 55.05929 | 9.38678 | 2490 ft | 125 kts | 1° |
| 2026-04-27 15:52 | 55.06797 | 9.38774 | 2491 ft | 125 kts | 3° |
| 2026-04-27 15:53 | 55.07666 | 9.38884 | 2492 ft | 126 kts | 3° |
| 2026-04-27 15:53 | 55.08535 | 9.38996 | 2493 ft | 125 kts | 3° |
| 2026-04-27 15:53 | 55.09403 | 9.39109 | 2494 ft | 125 kts | 3° |
| 2026-04-27 15:53 | 55.10271 | 9.39221 | 2494 ft | 125 kts | 3° |
| 2026-04-27 15:54 | 55.11140 | 9.39334 | 2495 ft | 125 kts | 3° |
| 2026-04-27 15:54 | 55.12006 | 9.39446 | 2496 ft | 125 kts | 3° |
| 2026-04-27 15:54 | 55.12875 | 9.39558 | 2496 ft | 125 kts | 3° |
| 2026-04-27 15:54 | 55.13743 | 9.39671 | 2497 ft | 125 kts | 3° |
| 2026-04-27 15:55 | 55.14612 | 9.39784 | 2497 ft | 126 kts | 3° |
| 2026-04-27 15:55 | 55.15191 | 9.39859 | 2497 ft | 125 kts | 3° |
| 2026-04-27 15:55 | 55.16348 | 9.40009 | 2498 ft | 125 kts | 3° |
| 2026-04-27 15:55 | 55.17216 | 9.40122 | 2498 ft | 125 kts | 3° |
| 2026-04-27 15:56 | 55.18086 | 9.40235 | 2498 ft | 125 kts | 3° |
| 2026-04-27 15:56 | 55.18953 | 9.40347 | 2499 ft | 125 kts | 3° |
| 2026-04-27 15:56 | 55.19823 | 9.40459 | 2499 ft | 125 kts | 3° |
| 2026-04-27 15:56 | 55.20691 | 9.40572 | 2499 ft | 125 kts | 3° |
| 2026-04-27 15:57 | 55.21559 | 9.40684 | 2499 ft | 125 kts | 3° |
| 2026-04-27 15:57 | 55.22429 | 9.40797 | 2499 ft | 125 kts | 3° |
| 2026-04-27 15:57 | 55.23297 | 9.40909 | 2499 ft | 125 kts | 3° |
| 2026-04-27 15:57 | 55.24165 | 9.41022 | 2499 ft | 125 kts | 3° |
| 2026-04-27 15:58 | 55.25032 | 9.41134 | 2499 ft | 125 kts | 3° |
| 2026-04-27 15:58 | 55.25899 | 9.41247 | 2499 ft | 125 kts | 3° |
| 2026-04-27 15:58 | 55.26768 | 9.41360 | 2499 ft | 125 kts | 3° |
| 2026-04-27 15:58 | 55.27635 | 9.41472 | 2499 ft | 125 kts | 3° |
| 2026-04-27 15:59 | 55.28504 | 9.41585 | 2499 ft | 125 kts | 3° |
| 2026-04-27 15:59 | 55.29370 | 9.41697 | 2499 ft | 125 kts | 3° |
| 2026-04-27 15:59 | 55.30239 | 9.41809 | 2499 ft | 125 kts | 3° |
| 2026-04-27 15:59 | 55.31107 | 9.41922 | 2499 ft | 125 kts | 3° |
| 2026-04-27 16:00 | 55.31975 | 9.42035 | 2499 ft | 125 kts | 3° |
| 2026-04-27 16:00 | 55.32554 | 9.42110 | 2499 ft | 125 kts | 3° |
| 2026-04-27 16:00 | 55.33712 | 9.42260 | 2499 ft | 125 kts | 3° |
| 2026-04-27 16:00 | 55.34581 | 9.42373 | 2499 ft | 125 kts | 3° |
| 2026-04-27 16:01 | 55.35450 | 9.42486 | 2500 ft | 126 kts | 3° |
| 2026-04-27 16:01 | 55.36318 | 9.42599 | 2500 ft | 125 kts | 3° |
| 2026-04-27 16:01 | 55.37180 | 9.42712 | 2500 ft | 124 kts | 3° |
| 2026-04-27 16:01 | 55.38044 | 9.42825 | 2500 ft | 125 kts | 3° |
| 2026-04-27 16:02 | 55.38911 | 9.42938 | 2500 ft | 125 kts | 3° |
| 2026-04-27 16:02 | 55.39779 | 9.43052 | 2500 ft | 125 kts | 3° |
| 2026-04-27 16:02 | 55.40647 | 9.43165 | 2500 ft | 125 kts | 3° |
| 2026-04-27 16:02 | 55.41514 | 9.43279 | 2500 ft | 125 kts | 3° |
| 2026-04-27 16:03 | 55.42383 | 9.43392 | 2500 ft | 125 kts | 3° |
| 2026-04-27 16:03 | 55.43252 | 9.43506 | 2500 ft | 125 kts | 3° |
| 2026-04-27 16:03 | 55.44120 | 9.43620 | 2500 ft | 125 kts | 3° |
| 2026-04-27 16:03 | 55.44988 | 9.43733 | 2500 ft | 125 kts | 3° |
| 2026-04-27 16:04 | 55.45856 | 9.43847 | 2500 ft | 125 kts | 3° |
| 2026-04-27 16:04 | 55.46725 | 9.43961 | 2500 ft | 125 kts | 3° |
| 2026-04-27 16:04 | 55.47590 | 9.44074 | 2500 ft | 125 kts | 3° |
| 2026-04-27 16:04 | 55.48459 | 9.44131 | 2500 ft | 125 kts | 359° |
| 2026-04-27 16:05 | 55.49319 | 9.43975 | 2500 ft | 126 kts | 344° |
| 2026-04-27 16:05 | 55.50162 | 9.43520 | 2500 ft | 127 kts | 341° |
| 2026-04-27 16:05 | 55.51004 | 9.43041 | 2500 ft | 127 kts | 341° |
| 2026-04-27 16:05 | 55.51845 | 9.42560 | 2500 ft | 127 kts | 341° |
| 2026-04-27 16:06 | 55.52686 | 9.42079 | 2500 ft | 127 kts | 341° |
| 2026-04-27 16:06 | 55.53525 | 9.41599 | 2500 ft | 127 kts | 341° |
| 2026-04-27 16:06 | 55.54365 | 9.41117 | 2500 ft | 127 kts | 341° |
| 2026-04-27 16:06 | 55.55207 | 9.40635 | 2500 ft | 127 kts | 341° |
| 2026-04-27 16:07 | 55.56049 | 9.40153 | 2500 ft | 127 kts | 341° |
| 2026-04-27 16:07 | 55.56890 | 9.39671 | 2500 ft | 127 kts | 341° |
| 2026-04-27 16:07 | 55.57731 | 9.39189 | 2500 ft | 127 kts | 341° |
| 2026-04-27 16:07 | 55.58572 | 9.38706 | 2500 ft | 127 kts | 341° |
| 2026-04-27 16:08 | 55.59418 | 9.38255 | 2500 ft | 127 kts | 343° |
| 2026-04-27 16:08 | 55.60268 | 9.37823 | 2500 ft | 127 kts | 343° |
| 2026-04-27 16:08 | 55.61118 | 9.37393 | 2500 ft | 127 kts | 343° |
| 2026-04-27 16:08 | 55.61968 | 9.36962 | 2500 ft | 127 kts | 343° |
| 2026-04-27 16:09 | 55.62818 | 9.36531 | 2501 ft | 127 kts | 343° |
| 2026-04-27 16:09 | 55.64514 | 9.35670 | 2500 ft | 127 kts | 343° |
| 2026-04-27 16:09 | 55.65364 | 9.35239 | 2500 ft | 127 kts | 343° |
| 2026-04-27 16:10 | 55.67065 | 9.34375 | 2500 ft | 127 kts | 343° |
| 2026-04-27 16:10 | 55.68765 | 9.33511 | 2500 ft | 127 kts | 343° |
| 2026-04-27 16:11 | 55.69617 | 9.33078 | 2500 ft | 127 kts | 343° |
| 2026-04-27 16:11 | 55.71318 | 9.32213 | 2500 ft | 127 kts | 343° |
| 2026-04-27 16:12 | 55.73019 | 9.31347 | 2500 ft | 128 kts | 343° |
| 2026-04-27 16:12 | 55.73870 | 9.30914 | 2500 ft | 127 kts | 343° |
| 2026-04-27 16:12 | 55.75570 | 9.30047 | 2500 ft | 127 kts | 343° |
| 2026-04-27 16:13 | 55.76421 | 9.29613 | 2500 ft | 127 kts | 343° |
| 2026-04-27 16:13 | 55.78123 | 9.28745 | 2500 ft | 127 kts | 343° |
| 2026-04-27 16:13 | 55.78974 | 9.28311 | 2500 ft | 127 kts | 343° |
| 2026-04-27 16:14 | 55.80675 | 9.27443 | 2500 ft | 127 kts | 343° |
| 2026-04-27 16:14 | 55.82363 | 9.26498 | 2500 ft | 128 kts | 337° |
| 2026-04-27 16:15 | 55.83985 | 9.25178 | 2500 ft | 128 kts | 334° |
| 2026-04-27 16:15 | 55.85599 | 9.23838 | 2500 ft | 128 kts | 334° |
| 2026-04-27 16:16 | 55.87215 | 9.22496 | 2500 ft | 128 kts | 334° |
| 2026-04-27 16:16 | 55.88831 | 9.21152 | 2500 ft | 128 kts | 334° |
| 2026-04-27 16:17 | 55.90448 | 9.19808 | 2500 ft | 129 kts | 334° |
| 2026-04-27 16:17 | 55.92065 | 9.18463 | 2500 ft | 129 kts | 334° |
| 2026-04-27 16:18 | 55.93679 | 9.17119 | 2501 ft | 128 kts | 334° |
| 2026-04-27 16:18 | 55.95293 | 9.15774 | 2501 ft | 128 kts | 334° |
| 2026-04-27 16:19 | 55.96104 | 9.15099 | 2501 ft | 129 kts | 334° |
| 2026-04-27 16:19 | 55.96912 | 9.14426 | 2501 ft | 128 kts | 334° |
| 2026-04-27 16:20 | 55.99115 | 9.12070 | 2607 ft | 118 kts | 314° |
| 2026-04-27 16:20 | 55.99844 | 9.11300 | 2545 ft | 125 kts | 333° |
| 2026-04-27 16:20 | 56.01452 | 9.09945 | 2508 ft | 129 kts | 334° |
| 2026-04-27 16:21 | 56.02264 | 9.09265 | 2504 ft | 129 kts | 334° |
| 2026-04-27 16:21 | 56.04702 | 9.07226 | 2501 ft | 129 kts | 334° |
| 2026-04-27 16:22 | 56.05516 | 9.06545 | 2501 ft | 129 kts | 334° |
| 2026-04-27 16:22 | 56.07142 | 9.05184 | 2500 ft | 129 kts | 334° |
| 2026-04-27 16:22 | 56.07957 | 9.04502 | 2500 ft | 129 kts | 334° |
| 2026-04-27 16:23 | 56.08771 | 9.03820 | 2500 ft | 130 kts | 334° |
| 2026-04-27 16:23 | 56.10400 | 9.02456 | 2500 ft | 130 kts | 334° |
| 2026-04-27 16:23 | 56.11214 | 9.01774 | 2442 ft | 128 kts | 334° |
| 2026-04-27 16:24 | 56.12022 | 9.01096 | 2267 ft | 129 kts | 334° |
| 2026-04-27 16:24 | 56.13732 | 9.00309 | 1917 ft | 127 kts | 355° |
| 2026-04-27 16:25 | 56.15477 | 9.00407 | 1605 ft | 125 kts | 4° |
| 2026-04-27 16:25 | 56.17109 | 9.00652 | 1519 ft | 112 kts | 4° |
| 2026-04-27 16:26 | 56.18635 | 9.00874 | 1504 ft | 110 kts | 4° |
| 2026-04-27 16:26 | 56.20163 | 9.01091 | 1501 ft | 111 kts | 4° |
| 2026-04-27 16:27 | 56.21693 | 9.01309 | 1500 ft | 111 kts | 4° |
| 2026-04-27 16:27 | 56.23988 | 9.01636 | 1500 ft | 110 kts | 4° |
| 2026-04-27 16:28 | 56.25519 | 9.01854 | 1500 ft | 111 kts | 4° |
| 2026-04-27 16:28 | 56.27024 | 9.02062 | 1717 ft | 98 kts | 7° |
| 2026-04-27 16:29 | 56.29192 | 9.04532 | 1094 ft | 123 kts | 32° |
| 2026-04-27 16:30 | 56.30015 | 9.06904 | 474 ft | 115 kts | 85° |
| 2026-04-27 16:30 | 56.29895 | 9.08831 | 492 ft | 41 kts | 84° |
| 2026-04-27 16:31 | 56.30005 | 9.10825 | 306 ft | 70 kts | 50° |
| 2026-04-27 16:31 | 56.30616 | 9.11496 | 268 ft | 34 kts | 15° |
| 2026-04-27 16:32 | 56.31092 | 9.11815 | 242 ft | 21 kts | 21° |
| 2026-04-27 16:32 | 56.31096 | 9.11886 | 181 ft | 1 kts | 24° |
| 2026-04-27 16:33 | 56.31095 | 9.11887 | 177 ft | 0 kts | 24° |